createdAt,value
2023-05-22T00:00:35.608Z,6.57
2023-05-22T00:03:43.802Z,6.80
2023-05-22T00:06:52.455Z,7.90
2023-05-22T00:10:03.730Z,7.57
2023-05-22T00:13:12.133Z,7.57
2023-05-22T00:16:20.750Z,7.67
2023-05-22T00:19:30.517Z,7.83
2023-05-22T00:22:39.244Z,7.43
2023-05-22T00:25:50.484Z,7.07
2023-05-22T00:28:58.992Z,7.90
2023-05-22T00:32:08.435Z,7.37
2023-05-22T00:35:16.876Z,8.20
2023-05-22T00:38:33.580Z,7.77
2023-05-22T00:41:43.290Z,8.03
2023-05-22T00:44:51.772Z,7.73
2023-05-22T00:48:00.329Z,7.37
2023-05-22T00:51:09.312Z,7.13
2023-05-22T00:54:18.903Z,8.30
2023-05-22T00:57:30.350Z,7.90
2023-05-22T01:00:40.169Z,8.47
2023-05-22T01:03:49.487Z,7.87
2023-05-22T01:06:57.796Z,7.87
2023-05-22T01:10:07.388Z,7.77
2023-05-22T01:13:29.869Z,7.87
2023-05-22T01:16:51.585Z,7.70
2023-05-22T01:20:12.020Z,7.53
2023-05-22T01:24:02.255Z,7.93
2023-05-22T01:27:55.464Z,7.90
2023-05-22T01:31:11.244Z,7.57
2023-05-22T01:34:22.113Z,8.20
2023-05-22T01:37:31.862Z,8.10
2023-05-22T01:40:41.708Z,7.67
2023-05-22T01:43:50.400Z,7.90
2023-05-22T01:47:05.108Z,7.90
2023-05-22T01:50:14.848Z,7.43
2023-05-22T01:53:34.676Z,7.93
2023-05-22T01:56:49.914Z,8.10
2023-05-22T02:00:09.749Z,7.83
2023-05-22T02:03:32.466Z,8.23
2023-05-22T02:06:42.380Z,8.60
2023-05-22T02:09:53.694Z,7.60
2023-05-22T02:13:03.029Z,7.83
2023-05-22T02:16:12.598Z,7.17
2023-05-22T02:19:22.697Z,8.23
2023-05-22T02:22:31.321Z,7.97
2023-05-22T02:25:39.553Z,8.13
2023-05-22T02:28:47.676Z,7.97
2023-05-22T02:31:55.846Z,8.07
2023-05-22T02:35:06.019Z,7.83
2023-05-22T02:38:14.511Z,8.13
2023-05-22T02:41:22.753Z,8.00
2023-05-22T02:44:31.169Z,9.10
2023-05-22T02:47:40.085Z,8.83
2023-05-22T02:50:49.698Z,7.90
2023-05-22T02:53:58.565Z,8.80
2023-05-22T02:57:07.007Z,8.20
2023-05-22T03:00:16.949Z,8.17
2023-05-22T03:03:25.578Z,8.23
2023-05-22T03:06:37.110Z,8.37
2023-05-22T03:09:45.254Z,8.10
2023-05-22T03:12:53.384Z,7.43
2023-05-22T03:16:02.242Z,8.70
2023-05-22T03:19:13.874Z,7.50
2023-05-22T03:22:23.755Z,7.27
2023-05-22T03:25:32.450Z,7.77
2023-05-22T03:28:40.786Z,7.10
2023-05-22T03:31:49.140Z,8.03
2023-05-22T03:34:58.550Z,7.33
2023-05-22T03:38:08.291Z,7.50
2023-05-22T03:41:16.582Z,6.87
2023-05-22T03:44:25.637Z,6.63
2023-05-22T03:47:35.029Z,6.17
2023-05-22T03:50:44.073Z,5.83
2023-05-22T03:53:55.234Z,6.07
2023-05-22T03:57:03.526Z,5.97
2023-05-22T04:00:13.714Z,6.07
2023-05-22T04:03:22.597Z,5.30
2023-05-22T04:06:32.972Z,5.80
2023-05-22T04:09:42.613Z,5.40
2023-05-22T04:12:51.361Z,8.77
2023-05-22T04:15:59.752Z,6.67
2023-05-22T04:19:09.672Z,5.33
2023-05-22T04:22:18.650Z,5.57
2023-05-22T04:25:28.331Z,4.73
2023-05-22T04:28:36.551Z,5.33
2023-05-22T04:31:44.909Z,4.37
2023-05-22T04:34:54.717Z,4.83
2023-05-22T04:38:03.650Z,5.10
2023-05-22T04:41:14.349Z,4.77
2023-05-22T04:44:23.001Z,4.77
2023-05-22T04:47:38.384Z,5.10
2023-05-22T04:50:48.570Z,4.10
2023-05-22T04:53:58.363Z,4.73
2023-05-22T04:57:09.513Z,4.27
2023-05-22T05:00:20.680Z,4.47
2023-05-22T05:03:29.896Z,5.03
2023-05-22T05:06:39.919Z,4.27
2023-05-22T05:09:48.190Z,4.10
2023-05-22T05:12:57.831Z,4.33
2023-05-22T05:16:06.671Z,3.97
2023-05-22T05:19:15.509Z,4.20
2023-05-22T05:22:23.814Z,4.00
2023-05-22T05:25:31.943Z,4.80
2023-05-22T05:28:41.880Z,5.03
2023-05-22T05:31:50.940Z,4.80
2023-05-22T05:35:12.849Z,4.60
2023-05-22T05:38:26.412Z,4.63
2023-05-22T05:41:36.815Z,4.90
2023-05-22T05:44:51.244Z,4.80
2023-05-22T05:48:00.389Z,4.93
2023-05-22T05:51:08.886Z,4.77
2023-05-22T05:54:21.841Z,4.23
2023-05-22T05:57:32.620Z,4.50
2023-05-22T06:00:42.531Z,4.87
2023-05-22T06:03:53.820Z,4.23
2023-05-22T06:07:07.955Z,4.27
2023-05-22T06:10:21.065Z,3.87
2023-05-22T06:13:38.616Z,3.63
2023-05-22T06:16:48.795Z,4.13
2023-05-22T06:19:57.606Z,3.40
2023-05-22T06:23:06.443Z,3.40
2023-05-22T06:26:17.035Z,3.10
2023-05-22T06:29:26.698Z,3.70
2023-05-22T06:32:37.281Z,3.37
2023-05-22T06:35:45.685Z,3.47
2023-05-22T06:38:55.666Z,3.57
2023-05-22T06:42:23.885Z,3.60
2023-05-22T06:46:01.646Z,3.23
2023-05-22T06:49:13.957Z,3.33
2023-05-22T06:52:27.391Z,3.53
2023-05-22T06:55:35.980Z,3.80
2023-05-22T06:58:51.980Z,3.57
2023-05-22T07:02:03.512Z,3.73
2023-05-22T07:05:21.136Z,3.50
2023-05-22T07:08:38.347Z,3.63
2023-05-22T07:11:47.291Z,3.57
2023-05-22T07:15:00.006Z,3.30
2023-05-22T07:18:09.708Z,3.70
2023-05-22T07:21:23.838Z,4.00
2023-05-22T07:24:33.359Z,3.73
2023-05-22T07:27:42.036Z,4.03
2023-05-22T07:30:50.440Z,4.23
2023-05-22T07:33:58.670Z,4.30
2023-05-22T07:37:13.799Z,3.93
2023-05-22T07:40:24.545Z,3.97
2023-05-22T07:43:34.721Z,3.97
2023-05-22T07:46:43.559Z,4.50
2023-05-22T07:49:55.846Z,3.93
2023-05-22T07:53:07.249Z,4.23
2023-05-22T07:56:19.252Z,4.37
2023-05-22T07:59:29.780Z,4.03
2023-05-22T08:02:40.701Z,4.03
2023-05-22T08:05:49.277Z,4.20
2023-05-22T08:09:00.103Z,4.60
2023-05-22T08:12:09.554Z,4.60
2023-05-22T08:15:18.176Z,4.50
2023-05-22T08:18:28.039Z,4.10
2023-05-22T08:21:37.500Z,5.30
2023-05-22T08:24:47.553Z,4.37
2023-05-22T08:27:55.742Z,4.40
2023-05-22T08:31:04.085Z,4.13
2023-05-22T08:34:12.279Z,4.90
2023-05-22T08:37:21.217Z,4.90
2023-05-22T08:40:38.348Z,4.53
2023-05-22T08:43:47.298Z,4.67
2023-05-22T08:46:56.702Z,4.20
2023-05-22T08:50:07.219Z,4.90
2023-05-22T08:53:18.638Z,4.37
2023-05-22T08:56:29.755Z,4.90
2023-05-22T08:59:40.536Z,5.10
2023-05-22T09:02:50.775Z,4.30
2023-05-22T09:05:59.391Z,4.43
2023-05-22T09:09:07.828Z,4.73
2023-05-22T09:12:17.670Z,4.27
2023-05-22T09:15:31.025Z,4.60
2023-05-22T09:18:40.166Z,4.80
2023-05-22T09:21:48.610Z,4.73
2023-05-22T09:24:59.257Z,4.33
2023-05-22T09:28:09.076Z,5.23
2023-05-22T09:31:17.547Z,4.97
2023-05-22T09:34:29.924Z,4.53
2023-05-22T09:37:38.891Z,5.07
2023-05-22T09:40:47.229Z,4.20
2023-05-22T09:43:58.314Z,4.20
2023-05-22T09:47:11.181Z,4.87
2023-05-22T09:50:19.369Z,4.57
2023-05-22T09:53:29.513Z,4.87
2023-05-22T09:56:40.378Z,4.27
2023-05-22T09:59:54.847Z,4.60
2023-05-22T10:03:11.989Z,4.63
2023-05-22T10:06:22.646Z,4.97
2023-05-22T10:09:35.709Z,4.90
2023-05-22T10:12:53.253Z,24.63
2023-05-22T10:16:04.694Z,5.37
2023-05-22T10:19:13.915Z,4.77
2023-05-22T10:22:25.994Z,4.37
2023-05-22T10:25:35.138Z,4.73
2023-05-22T10:28:52.700Z,4.90
2023-05-22T10:32:14.037Z,4.80
2023-05-22T10:35:44.434Z,5.00
2023-05-22T10:39:11.957Z,4.57
2023-05-22T10:42:20.502Z,5.00
2023-05-22T10:45:29.939Z,4.90
2023-05-22T10:48:41.393Z,5.03
2023-05-22T10:51:49.703Z,5.10
2023-05-22T10:55:01.185Z,5.33
2023-05-22T10:58:14.885Z,5.17
2023-05-22T11:01:27.029Z,5.20
2023-05-22T11:04:43.350Z,5.60
2023-05-22T11:07:51.594Z,4.90
2023-05-22T11:10:59.940Z,5.27
2023-05-22T11:14:09.816Z,5.03
2023-05-22T11:17:20.386Z,5.13
2023-05-22T11:20:31.063Z,4.73
2023-05-22T11:23:39.906Z,4.77
2023-05-22T11:27:03.542Z,4.97
2023-05-22T11:30:13.239Z,4.37
2023-05-22T11:33:21.494Z,4.90
2023-05-22T11:36:31.722Z,5.10
2023-05-22T11:39:39.991Z,4.73
2023-05-22T11:42:48.971Z,5.50
2023-05-22T11:46:02.743Z,4.87
2023-05-22T11:49:13.189Z,5.27
2023-05-22T11:52:22.938Z,4.27
2023-05-22T11:55:31.107Z,4.90
2023-05-22T11:58:39.276Z,4.57
2023-05-22T12:01:50.833Z,4.87
2023-05-22T12:04:59.937Z,4.27
2023-05-22T12:08:09.719Z,4.70
2023-05-22T12:11:18.397Z,4.47
2023-05-22T12:14:28.965Z,4.70
2023-05-22T12:17:38.607Z,4.87
2023-05-22T12:20:47.207Z,5.40
2023-05-22T12:23:56.736Z,5.50
2023-05-22T12:27:10.299Z,4.90
2023-05-22T12:30:20.386Z,5.60
2023-05-22T12:33:30.721Z,5.20
2023-05-22T12:36:41.857Z,5.07
2023-05-22T12:39:59.593Z,5.33
2023-05-22T12:43:07.822Z,5.60
2023-05-22T12:46:16.072Z,4.90
2023-05-22T12:49:24.319Z,7.10
2023-05-22T12:52:32.525Z,5.97
2023-05-22T12:55:42.822Z,6.30
2023-05-22T12:58:51.569Z,6.07
2023-05-22T13:02:02.320Z,7.00
2023-05-22T13:05:11.188Z,7.07
2023-05-22T13:08:20.289Z,7.77
2023-05-22T13:11:29.899Z,7.00
2023-05-22T13:14:38.942Z,6.33
2023-05-22T13:17:47.222Z,7.30
2023-05-22T13:20:56.338Z,6.70
2023-05-22T13:24:04.953Z,5.93
2023-05-22T13:27:14.617Z,6.77
2023-05-22T13:30:23.121Z,6.57
2023-05-22T13:33:31.711Z,6.77
2023-05-22T13:36:40.042Z,5.73
2023-05-22T13:39:48.337Z,7.63
2023-05-22T13:42:58.296Z,7.40
2023-05-22T13:46:06.639Z,6.70
2023-05-22T13:49:14.921Z,6.80
2023-05-22T13:52:23.703Z,7.03
2023-05-22T13:55:31.932Z,7.07
2023-05-22T13:58:41.744Z,7.03
2023-05-22T14:01:50.147Z,7.07
2023-05-22T14:04:58.460Z,7.17
2023-05-22T14:08:06.837Z,7.00
2023-05-22T14:11:17.503Z,7.63
2023-05-22T14:14:28.144Z,7.40
2023-05-22T14:17:36.503Z,6.90
2023-05-22T14:20:45.679Z,7.10
2023-05-22T14:23:54.157Z,7.13
2023-05-22T14:27:02.369Z,7.37
2023-05-22T14:30:13.586Z,6.90
2023-05-22T14:33:21.861Z,6.07
2023-05-22T14:36:30.203Z,6.13
2023-05-22T14:39:38.393Z,6.10
2023-05-22T14:42:48.133Z,4.80
2023-05-22T14:45:59.239Z,4.40
2023-05-22T14:49:07.547Z,3.80
2023-05-22T14:52:15.960Z,3.57
2023-05-22T14:55:27.667Z,3.30
2023-05-22T14:58:36.057Z,4.03
2023-05-22T15:01:49.995Z,3.83
2023-05-22T15:04:58.479Z,3.70
2023-05-22T15:08:09.510Z,3.30
2023-05-22T15:11:17.983Z,3.63
2023-05-22T15:14:26.447Z,3.87
2023-05-22T15:17:36.837Z,3.93
2023-05-22T15:20:45.860Z,4.87
2023-05-22T15:23:54.347Z,4.10
2023-05-22T15:27:02.769Z,3.60
2023-05-22T15:30:12.437Z,4.00
2023-05-22T15:33:22.648Z,3.53
2023-05-22T15:36:31.391Z,2.73
2023-05-22T15:39:39.818Z,2.70
2023-05-22T15:42:48.218Z,2.53
2023-05-22T15:45:56.529Z,2.80
2023-05-22T15:49:06.637Z,2.57
2023-05-22T15:52:14.999Z,3.50
2023-05-22T15:55:23.536Z,3.30
2023-05-22T15:58:32.231Z,2.50
2023-05-22T16:01:40.554Z,3.07
2023-05-22T16:04:50.750Z,3.13
2023-05-22T16:07:58.979Z,3.07
2023-05-22T16:11:07.846Z,3.40
2023-05-22T16:14:16.286Z,3.20
2023-05-22T16:17:24.510Z,3.27
2023-05-22T16:20:34.407Z,3.33
2023-05-22T16:23:42.687Z,3.40
2023-05-22T16:26:51.153Z,3.30
2023-05-22T16:30:02.439Z,3.43
2023-05-22T16:33:11.034Z,3.47
2023-05-22T16:36:21.039Z,3.47
2023-05-22T16:39:29.369Z,3.23
2023-05-22T16:42:38.480Z,3.70
2023-05-22T16:45:50.959Z,3.70
2023-05-22T16:48:59.866Z,3.47
2023-05-22T16:52:09.604Z,4.13
2023-05-22T16:55:18.318Z,3.03
2023-05-22T16:58:26.792Z,3.17
2023-05-22T17:01:35.165Z,3.00
2023-05-22T17:04:43.729Z,3.33
2023-05-22T17:07:57.534Z,2.93
2023-05-22T17:11:06.078Z,2.63
2023-05-22T17:14:14.749Z,3.07
2023-05-22T17:17:23.166Z,3.23
2023-05-22T17:20:32.716Z,3.23
2023-05-22T17:23:42.979Z,3.20
2023-05-22T17:26:51.532Z,3.43
2023-05-22T17:29:59.760Z,3.77
2023-05-22T17:33:08.006Z,3.67
2023-05-22T17:36:16.302Z,4.07
2023-05-22T17:39:26.847Z,3.20
2023-05-22T17:42:35.595Z,3.53
2023-05-22T17:45:44.683Z,2.77
2023-05-22T17:48:55.230Z,3.27
2023-05-22T17:52:03.617Z,3.57
2023-05-22T17:55:13.408Z,3.57
2023-05-22T17:58:22.075Z,3.47
2023-05-22T18:01:31.757Z,3.37
2023-05-22T18:04:40.113Z,3.70
2023-05-22T18:07:49.325Z,3.57
2023-05-22T18:10:59.328Z,4.00
2023-05-22T18:14:08.225Z,3.87
2023-05-22T18:17:16.786Z,3.93
2023-05-22T18:20:25.240Z,4.00
2023-05-22T18:23:34.012Z,4.53
2023-05-22T18:26:43.684Z,4.20
2023-05-22T18:29:52.332Z,4.47
2023-05-22T18:33:00.989Z,4.17
2023-05-22T18:36:09.607Z,3.90
2023-05-22T18:39:18.027Z,4.30
2023-05-22T18:42:28.011Z,4.10
2023-05-22T18:45:36.248Z,4.33
2023-05-22T18:48:44.556Z,4.80
2023-05-22T18:51:53.456Z,4.87
2023-05-22T18:55:03.036Z,5.10
2023-05-22T18:58:13.670Z,5.20
2023-05-22T19:01:22.657Z,5.03
2023-05-22T19:04:31.162Z,5.23
2023-05-22T19:07:39.823Z,4.37
2023-05-22T19:10:48.644Z,5.13
2023-05-22T19:13:59.726Z,4.80
2023-05-22T19:17:08.204Z,4.73
2023-05-22T19:20:17.211Z,4.57
2023-05-22T19:23:25.870Z,5.73
2023-05-22T19:26:34.481Z,5.60
2023-05-22T19:29:44.580Z,4.97
2023-05-22T19:32:55.721Z,5.17
2023-05-22T19:36:06.484Z,5.23
2023-05-22T19:39:14.657Z,5.63
2023-05-22T19:42:23.103Z,5.43
2023-05-22T19:45:33.110Z,4.77
2023-05-22T19:48:41.507Z,5.20
2023-05-22T19:51:49.851Z,5.57
2023-05-22T19:54:59.431Z,5.30
2023-05-22T19:58:07.965Z,5.40
2023-05-22T20:01:17.776Z,5.07
2023-05-22T20:04:26.097Z,5.13
2023-05-22T20:07:34.546Z,5.27
2023-05-22T20:10:42.814Z,5.07
2023-05-22T20:13:51.037Z,5.10
2023-05-22T20:17:01.391Z,5.80
2023-05-22T20:20:10.992Z,5.73
2023-05-22T20:23:19.215Z,5.67
2023-05-22T20:26:27.872Z,5.63
2023-05-22T20:29:36.855Z,5.80
2023-05-22T20:32:47.581Z,5.70
2023-05-22T20:35:55.870Z,5.17
2023-05-22T20:39:05.898Z,5.27
2023-05-22T20:42:14.455Z,5.70
2023-05-22T20:45:23.074Z,5.93
2023-05-22T20:48:32.651Z,5.60
2023-05-22T20:51:41.903Z,5.47
2023-05-22T20:54:50.694Z,5.70
2023-05-22T20:57:59.153Z,5.27
2023-05-22T21:01:07.454Z,5.50
2023-05-22T21:04:17.276Z,6.07
2023-05-22T21:07:25.532Z,5.50
2023-05-22T21:10:33.683Z,5.87
2023-05-22T21:13:41.874Z,6.17
2023-05-22T21:16:50.050Z,6.10
2023-05-22T21:19:59.684Z,5.70
2023-05-22T21:23:08.043Z,6.07
2023-05-22T21:26:18.014Z,5.80
2023-05-22T21:29:26.278Z,6.10
2023-05-22T21:32:34.897Z,6.10
2023-05-22T21:35:44.617Z,5.80
2023-05-22T21:38:53.199Z,6.03
2023-05-22T21:42:01.509Z,6.37
2023-05-22T21:45:11.138Z,6.10
2023-05-22T21:48:19.278Z,6.10
2023-05-22T21:51:28.710Z,6.50
2023-05-22T21:54:36.890Z,6.17
2023-05-22T21:57:46.145Z,6.40
2023-05-22T22:00:54.237Z,6.57
2023-05-22T22:04:03.641Z,6.73
2023-05-22T22:07:13.592Z,6.47
2023-05-22T22:10:22.214Z,6.13
2023-05-22T22:13:30.490Z,6.70
2023-05-22T22:16:40.644Z,6.60
2023-05-22T22:19:48.909Z,6.43
2023-05-22T22:22:58.385Z,6.83
2023-05-22T22:26:06.706Z,6.40
2023-05-22T22:29:15.077Z,6.70
2023-05-22T22:32:23.258Z,6.27
2023-05-22T22:35:31.401Z,6.73
2023-05-22T22:38:41.264Z,7.00
2023-05-22T22:41:49.607Z,6.27
2023-05-22T22:44:57.801Z,6.60
2023-05-22T22:48:06.807Z,5.97
2023-05-22T22:51:15.277Z,7.03
2023-05-22T22:54:24.798Z,6.47
2023-05-22T22:57:33.346Z,6.43
2023-05-22T23:00:41.454Z,7.10
2023-05-22T23:03:49.557Z,6.60
2023-05-22T23:06:58.324Z,6.07
2023-05-22T23:10:10.023Z,6.93
2023-05-22T23:13:18.208Z,7.23
2023-05-22T23:16:26.582Z,6.80
2023-05-22T23:19:34.894Z,6.60
2023-05-22T23:22:47.255Z,6.53
2023-05-22T23:25:58.847Z,6.83
2023-05-22T23:29:08.199Z,7.37
2023-05-22T23:32:16.648Z,7.07
2023-05-22T23:35:25.577Z,7.20
2023-05-22T23:38:33.771Z,6.67
2023-05-22T23:41:44.408Z,7.33
2023-05-22T23:44:52.493Z,6.60
2023-05-22T23:48:00.731Z,6.57
2023-05-22T23:51:09.889Z,7.27
2023-05-22T23:54:18.366Z,6.67
2023-05-22T23:57:28.079Z,6.13
